createdAt,value
2018-12-14T00:03:13.171Z,14.83
2018-12-14T00:08:06.451Z,14.67
2018-12-14T00:12:59.767Z,15.10
2018-12-14T00:17:53.045Z,15.00
2018-12-14T00:22:46.331Z,16.97
2018-12-14T00:43:53.379Z,17.07
2018-12-14T00:48:46.730Z,18.63
2018-12-14T00:53:40.096Z,17.30
2018-12-14T00:58:33.378Z,17.30
2018-12-14T01:03:26.674Z,16.83
2018-12-14T01:08:19.950Z,17.50
2018-12-14T01:13:13.235Z,18.70
2018-12-14T01:18:06.550Z,17.43
2018-12-14T01:22:59.826Z,16.60
2018-12-14T01:44:07.363Z,16.90
2018-12-14T01:49:00.640Z,18.10
2018-12-14T01:53:53.939Z,17.47
2018-12-14T01:58:47.251Z,17.37
2018-12-14T02:03:40.617Z,16.87
2018-12-14T02:08:33.899Z,17.67
2018-12-14T02:13:27.199Z,18.30
2018-12-14T02:18:20.525Z,16.90
2018-12-14T02:23:13.836Z,19.93
2018-12-14T02:44:21.747Z,16.27
2018-12-14T02:49:15.110Z,17.57
2018-12-14T02:54:08.416Z,17.83
2018-12-14T02:59:01.828Z,17.00
2018-12-14T03:03:55.115Z,15.73
2018-12-14T03:08:48.398Z,17.57
2018-12-14T03:13:41.827Z,16.43
2018-12-14T03:18:35.395Z,17.77
2018-12-14T03:23:28.710Z,16.77
2018-12-14T03:44:36.869Z,17.90
2018-12-14T03:49:30.157Z,17.47
2018-12-14T03:54:23.513Z,17.13
2018-12-14T03:59:16.814Z,16.83
2018-12-14T04:04:10.100Z,17.00
2018-12-14T04:09:04.669Z,18.53
2018-12-14T04:13:57.975Z,18.73
2018-12-14T04:18:51.268Z,16.53
2018-12-14T04:23:44.564Z,17.40
2018-12-14T04:44:52.218Z,16.80
2018-12-14T04:49:45.859Z,17.07
2018-12-14T04:54:39.145Z,16.83
2018-12-14T04:59:32.426Z,17.40
2018-12-14T05:04:25.733Z,17.87
2018-12-14T05:09:19.023Z,16.27
2018-12-14T05:14:12.324Z,17.57
2018-12-14T05:19:05.604Z,17.13
2018-12-14T05:23:58.958Z,15.40
2018-12-14T05:45:06.657Z,14.60
2018-12-14T05:49:59.939Z,14.77
2018-12-14T05:54:53.227Z,13.67
2018-12-14T05:59:46.530Z,14.43
2018-12-14T06:04:39.892Z,14.60
2018-12-14T06:09:33.197Z,15.70
2018-12-14T06:14:26.484Z,14.63
2018-12-14T06:19:19.829Z,15.67
2018-12-14T06:24:13.188Z,15.27
2018-12-14T06:45:21.133Z,14.90
2018-12-14T06:50:14.432Z,15.60
2018-12-14T06:55:07.798Z,15.57
2018-12-14T07:00:01.193Z,14.13
2018-12-14T07:04:54.483Z,15.57
2018-12-14T07:09:47.764Z,14.50
2018-12-14T07:14:41.059Z,14.93
2018-12-14T07:19:34.351Z,14.80
2018-12-14T07:24:28.082Z,14.53
2018-12-14T07:45:36.529Z,15.17
2018-12-14T07:50:30.135Z,14.60
2018-12-14T07:55:23.638Z,14.07
2018-12-14T08:00:17.314Z,13.53
2018-12-14T08:05:10.664Z,13.97
2018-12-14T08:10:05.047Z,14.10
2018-12-14T08:15:01.399Z,14.60
2018-12-14T08:19:54.789Z,13.80
2018-12-14T08:24:48.051Z,14.57
2018-12-14T08:45:58.607Z,14.47
2018-12-14T08:50:52.504Z,15.97
2018-12-14T08:55:46.437Z,14.60
2018-12-14T09:00:39.763Z,14.83
2018-12-14T09:05:33.362Z,14.50
2018-12-14T09:10:26.765Z,15.00
2018-12-14T09:15:25.932Z,14.37
2018-12-14T09:20:19.483Z,15.63
2018-12-14T09:25:15.351Z,15.60
2018-12-14T09:46:23.691Z,14.70
2018-12-14T09:51:17.148Z,14.23
2018-12-14T09:56:16.005Z,14.90
2018-12-14T10:01:12.328Z,14.50
2018-12-14T10:06:15.882Z,14.37
2018-12-14T10:11:13.136Z,14.90
2018-12-14T10:16:07.560Z,13.90
2018-12-14T10:21:03.690Z,14.67
2018-12-14T10:26:01.764Z,13.83
2018-12-14T10:47:09.307Z,14.73
2018-12-14T10:52:02.978Z,15.73
2018-12-14T10:56:56.293Z,15.40
2018-12-14T11:01:57.768Z,14.37
2018-12-14T11:06:51.189Z,13.43
2018-12-14T11:11:44.753Z,13.40
2018-12-14T11:16:39.051Z,14.10
2018-12-14T11:21:32.453Z,13.40
2018-12-14T11:26:34.474Z,13.67
2018-12-14T11:47:50.594Z,13.77
2018-12-14T11:52:46.105Z,12.43
2018-12-14T11:57:40.707Z,13.10
2018-12-14T12:02:42.888Z,14.13
2018-12-14T12:07:35.263Z,12.87
2018-12-14T12:12:38.201Z,12.77
2018-12-14T12:17:32.776Z,14.03
2018-12-14T12:22:27.055Z,14.23
2018-12-14T12:27:22.323Z,13.57
2018-12-14T12:48:37.112Z,13.90
2018-12-14T12:53:30.779Z,13.87
2018-12-14T12:58:24.080Z,13.70
2018-12-14T13:03:18.138Z,13.73
2018-12-14T13:08:11.482Z,13.87
2018-12-14T13:13:04.890Z,14.43
2018-12-14T13:17:58.206Z,13.53
2018-12-14T13:22:51.487Z,13.20
2018-12-14T13:27:44.784Z,13.73
2018-12-14T13:48:52.350Z,13.10
2018-12-14T13:53:46.890Z,13.50
2018-12-14T13:58:40.864Z,12.63
2018-12-14T14:03:34.743Z,13.37
2018-12-14T14:08:28.033Z,13.17
2018-12-14T14:13:21.617Z,13.47
2018-12-14T14:18:15.149Z,12.67
2018-12-14T14:23:08.519Z,14.50
2018-12-14T14:28:02.066Z,12.70
2018-12-14T14:32:55.695Z,13.17
2018-12-14T14:54:04.307Z,13.30
2018-12-14T14:58:57.609Z,13.40
2018-12-14T15:03:50.894Z,12.70
2018-12-14T15:08:44.369Z,13.63
2018-12-14T15:13:37.806Z,14.00
2018-12-14T15:34:45.500Z,13.40
2018-12-14T15:39:38.867Z,13.80
2018-12-14T15:44:32.293Z,14.47
2018-12-14T15:49:25.614Z,15.07
2018-12-14T15:54:18.895Z,13.70
2018-12-14T16:10:01.925Z,14.03
2018-12-14T16:14:55.242Z,13.87
2018-12-14T16:19:48.727Z,13.80
2018-12-14T16:24:42.106Z,14.33
2018-12-14T16:45:49.707Z,14.20
2018-12-14T16:50:42.992Z,14.97
2018-12-14T16:55:36.261Z,14.13
2018-12-14T17:00:29.657Z,13.17
2018-12-14T17:05:23.134Z,14.30
2018-12-14T17:10:16.522Z,15.03
2018-12-14T17:15:09.979Z,13.80
2018-12-14T17:20:03.512Z,15.03
2018-12-14T17:24:56.856Z,14.67
2018-12-14T17:46:04.707Z,14.43
2018-12-14T17:50:58.041Z,15.23
2018-12-14T17:55:51.325Z,13.67
2018-12-14T18:00:45.365Z,14.37
2018-12-14T18:05:38.967Z,14.67
2018-12-14T18:10:32.464Z,14.33
2018-12-14T18:15:25.884Z,14.17
2018-12-14T18:20:19.264Z,15.40
2018-12-14T18:25:12.842Z,14.77
2018-12-14T18:46:20.450Z,14.83
2018-12-14T18:51:13.792Z,14.70
2018-12-14T18:56:07.072Z,15.20
2018-12-14T19:01:00.361Z,14.77
2018-12-14T19:05:53.657Z,15.00
2018-12-14T19:10:47.871Z,14.90
2018-12-14T19:15:41.204Z,15.30
2018-12-14T19:20:34.485Z,14.60
2018-12-14T19:25:27.755Z,15.70
2018-12-14T19:46:34.855Z,14.40
2018-12-14T19:51:28.108Z,15.10
2018-12-14T19:56:21.394Z,15.60
2018-12-14T20:01:14.679Z,14.63
2018-12-14T20:06:07.998Z,15.37
2018-12-14T20:11:01.288Z,14.93
2018-12-14T20:15:57.561Z,14.90
2018-12-14T20:20:49.912Z,14.80
2018-12-14T20:25:43.195Z,15.90
2018-12-14T20:46:51.261Z,17.00
2018-12-14T20:51:44.568Z,15.73
2018-12-14T20:56:38.002Z,16.20
2018-12-14T21:01:31.341Z,16.57
2018-12-14T21:06:24.610Z,16.57
2018-12-14T21:11:17.962Z,17.63
2018-12-14T21:16:11.340Z,16.90
2018-12-14T21:21:04.704Z,16.00
2018-12-14T21:25:58.003Z,16.00
2018-12-14T21:47:05.546Z,15.93
2018-12-14T21:51:58.811Z,15.83
2018-12-14T21:56:52.105Z,16.47
2018-12-14T22:01:45.587Z,16.30
2018-12-14T22:06:38.887Z,17.77
2018-12-14T22:11:32.163Z,16.00
2018-12-14T22:16:25.464Z,16.77
2018-12-14T22:21:18.735Z,18.17
2018-12-14T22:26:12.124Z,17.07
2018-12-14T22:47:20.179Z,16.67
2018-12-14T22:52:13.490Z,17.33
2018-12-14T22:57:06.792Z,17.57
2018-12-14T23:02:00.073Z,17.70
2018-12-14T23:06:53.383Z,17.80
2018-12-14T23:11:46.651Z,16.47
2018-12-14T23:16:39.950Z,16.93
2018-12-14T23:21:33.383Z,18.50
2018-12-14T23:26:26.719Z,18.53
2018-12-14T23:47:34.288Z,17.17
2018-12-14T23:52:27.886Z,18.83
2018-12-14T23:57:21.186Z,19.07
